National Weather Service Raw Text Product

Displaying AFOS PIL: TAFDSM Received: 2017-10-13 13:16 UTC


407 
FTUS43 KDMX 131316 AAA
TAFDSM
TAF AMD
KDSM 131316Z 1313/1412 08005KT 5SM BR FEW004 BKN050
     FM131500 04006KT P6SM BKN035
     FM132000 04008KT P6SM VCSH OVC016
     FM140000 04008KT P6SM VCTS OVC008CB
     FM140600 05006KT P6SM OVC006
     FM141000 05005KT 5SM -SHRA VCTS OVC006CB=